Time;durP1;ratioP1;P1;durP2;ratioP2;P2;SDS_P1;SDS_P2;PMS_P1;PMS_P2;Temp;Humidity;BMP_temperature;BMP_pressure;BME280_temperature;BME280_humidity;BME280_pressure;Samples;Min_cycle;Max_cycle;Signal;HPM_P1;HPM_P2
2021/12/01 00:00:41;;;;;;;0.57;0.57;;;;;;;;;;5076787;28;20226;-70
2021/12/01 00:03:08;;;;;;;0.90;0.73;;;;;;;;;;5071798;28;20198;-70
2021/12/01 00:05:35;;;;;;;0.60;0.60;;;;;;;;;;5071802;28;20205;-72
2021/12/01 00:08:07;;;;;;;0.70;0.70;;;;;;;;;;5073299;28;20205;-72
2021/12/01 00:10:34;;;;;;;0.70;0.70;;;;;;;;;;5079833;28;20257;-70
2021/12/01 00:13:02;;;;;;;0.77;0.70;;;;;;;;;;5091599;28;20657;-71
2021/12/01 00:15:32;;;;;;;0.63;0.63;;;;;;;;;;5074064;28;20763;-72
2021/12/01 00:18:18;;;;;;;1.20;0.70;;;;;;;;;;5092873;28;20214;-72
2021/12/01 00:20:48;;;;;;;0.60;0.60;;;;;;;;;;5093122;28;20723;-72
2021/12/01 00:23:17;;;;;;;0.50;0.50;;;;;;;;;;5092224;28;20252;-70
2021/12/01 00:25:45;;;;;;;0.70;0.70;;;;;;;;;;5093222;28;20728;-72
2021/12/01 00:28:11;;;;;;;0.43;0.43;;;;;;;;;;5093609;28;20239;-72
2021/12/01 00:30:40;;;;;;;0.40;0.40;;;;;;;;;;5075070;28;20240;-70
2021/12/01 00:33:11;;;;;;;0.43;0.43;;;;;;;;;;5090971;28;20628;-72
2021/12/01 00:35:38;;;;;;;0.60;0.60;;;;;;;;;;5093334;28;20270;-70
2021/12/01 00:38:08;;;;;;;0.50;0.50;;;;;;;;;;5093830;28;20262;-71
2021/12/01 00:40:37;;;;;;;0.77;0.50;;;;;;;;;;5093057;28;20263;-71
2021/12/01 00:43:15;;;;;;;0.50;0.50;;;;;;;;;;5092287;28;20232;-70
2021/12/01 00:45:50;;;;;;;0.40;0.40;;;;;;;;;;5095781;28;20222;-70
2021/12/01 00:48:17;;;;;;;0.47;0.47;;;;;;;;;;5093002;28;20207;-70
2021/12/01 00:50:44;;;;;;;0.50;0.50;;;;;;;;;;5092673;28;20231;-70
2021/12/01 00:53:13;;;;;;;0.50;0.50;;;;;;;;;;5091615;28;20200;-70
2021/12/01 00:55:42;;;;;;;0.30;0.30;;;;;;;;;;5095024;28;20236;-71
2021/12/01 00:58:12;;;;;;;0.40;0.40;;;;;;;;;;5093530;28;20226;-70
2021/12/01 01:00:52;;;;;;;0.43;0.40;;;;;;;;;;5093964;28;20228;-71
2021/12/01 01:36:08;;;;;;;1.00;0.90;;;;;;;;;;5088483;28;20316;-72
2021/12/01 01:38:37;;;;;;;1.37;1.07;;;;;;;;;;5088961;28;20238;-72
2021/12/01 01:41:14;;;;;;;1.30;1.17;;;;;;;;;;5089574;28;20287;-72
2021/12/01 01:43:41;;;;;;;4.70;1.30;;;;;;;;;;5088896;28;20224;-72
2021/12/01 01:46:08;;;;;;;1.20;1.10;;;;;;;;;;5087035;28;20250;-72
2021/12/01 01:48:54;;;;;;;1.67;1.30;;;;;;;;;;5088640;28;20212;-72
2021/12/01 01:51:24;;;;;;;2.00;1.47;;;;;;;;;;5089445;28;20300;-72
2021/12/01 01:53:54;;;;;;;1.60;1.30;;;;;;;;;;5088290;28;20574;-72
2021/12/01 01:56:21;;;;;;;1.60;1.50;;;;;;;;;;5087015;28;20228;-72
2021/12/01 01:58:47;;;;;;;2.00;1.60;;;;;;;;;;5087735;28;20848;-72
2021/12/01 02:01:53;;;;;;;2.23;1.63;;;;;;;;;;5088100;28;20201;-72
2021/12/01 02:04:11;;;;;;;1.97;1.43;;;;;;;;;;5085720;28;20232;-73
2021/12/01 02:06:37;;;;;;;1.67;1.30;;;;;;;;;;5070434;28;20220;-73
2021/12/01 02:09:12;;;;;;;2.17;1.60;;;;;;;;;;5087745;28;20204;-72
2021/12/01 02:11:41;;;;;;;1.50;1.30;;;;;;;;;;5088835;28;20208;-72
2021/12/01 02:14:11;;;;;;;1.60;1.23;;;;;;;;;;5087903;28;20256;-72
2021/12/01 02:16:38;;;;;;;1.23;1.13;;;;;;;;;;5088877;28;20208;-72
2021/12/01 02:19:05;;;;;;;1.83;1.30;;;;;;;;;;5087230;28;20684;-72
2021/12/01 02:21:32;;;;;;;1.30;1.20;;;;;;;;;;5087187;28;20215;-72
2021/12/01 02:24:00;;;;;;;2.83;1.30;;;;;;;;;;5087852;28;20256;-72
2021/12/01 02:26:27;;;;;;;1.93;1.30;;;;;;;;;;5088465;28;20240;-72
2021/12/01 02:28:59;;;;;;;1.17;1.07;;;;;;;;;;5087309;28;20209;-72
2021/12/01 02:31:28;;;;;;;1.20;1.10;;;;;;;;;;5070997;28;20208;-72
2021/12/01 02:33:56;;;;;;;1.13;1.03;;;;;;;;;;5069307;28;20911;-72
2021/12/01 02:36:28;;;;;;;1.10;1.00;;;;;;;;;;5088416;28;20277;-72
2021/12/01 02:38:55;;;;;;;1.77;1.50;;;;;;;;;;5087291;28;20201;-72
2021/12/01 02:41:29;;;;;;;0.87;0.87;;;;;;;;;;5087165;28;20727;-72
2021/12/01 02:43:57;;;;;;;1.47;1.00;;;;;;;;;;5087508;28;20711;-72
2021/12/01 02:46:24;;;;;;;1.23;1.10;;;;;;;;;;5078949;28;20288;-72
2021/12/01 02:48:57;;;;;;;0.90;0.83;;;;;;;;;;5056289;28;20212;-72
2021/12/01 02:51:31;;;;;;;0.93;0.90;;;;;;;;;;5073623;28;20300;-72
2021/12/01 02:54:02;;;;;;;0.83;0.80;;;;;;;;;;5072263;28;20263;-72
2021/12/01 02:56:32;;;;;;;1.00;0.90;;;;;;;;;;5074505;28;20217;-72
2021/12/01 02:58:59;;;;;;;0.83;0.83;;;;;;;;;;5073122;28;20248;-72
2021/12/01 03:01:26;;;;;;;1.10;0.97;;;;;;;;;;5074149;28;20292;-72
2021/12/01 03:03:56;;;;;;;1.13;0.97;;;;;;;;;;5074130;28;20225;-71
2021/12/01 03:06:29;;;;;;;0.97;0.90;;;;;;;;;;5074832;28;20197;-71
2021/12/01 03:08:59;;;;;;;0.87;0.87;;;;;;;;;;5075273;28;20300;-71
2021/12/01 03:11:28;;;;;;;4.60;1.27;;;;;;;;;;5072716;28;20596;-71
2021/12/01 03:13:59;;;;;;;1.40;1.20;;;;;;;;;;5075087;28;20316;-71
2021/12/01 03:16:25;;;;;;;0.77;0.77;;;;;;;;;;5078007;28;20340;-71
2021/12/01 03:18:52;;;;;;;1.20;0.90;;;;;;;;;;5076296;28;20201;-71
2021/12/01 03:21:19;;;;;;;0.70;0.70;;;;;;;;;;5073704;28;20288;-71
2021/12/01 03:23:45;;;;;;;1.57;1.00;;;;;;;;;;5073173;28;20225;-71
2021/12/01 03:26:12;;;;;;;1.20;1.07;;;;;;;;;;5072949;28;20308;-71
2021/12/01 03:28:39;;;;;;;3.17;1.03;;;;;;;;;;5072636;28;20205;-71
2021/12/01 03:31:08;;;;;;;2.73;1.10;;;;;;;;;;5073342;28;20574;-71
2021/12/01 03:33:40;;;;;;;0.90;0.90;;;;;;;;;;5073507;28;20679;-71
2021/12/01 03:36:12;;;;;;;2.77;0.87;;;;;;;;;;5073746;28;20309;-71
2021/12/01 03:38:39;;;;;;;2.23;1.57;;;;;;;;;;5073167;28;20209;-71
2021/12/01 03:41:05;;;;;;;0.73;0.73;;;;;;;;;;5073557;28;20209;-71
2021/12/01 03:43:32;;;;;;;0.77;0.77;;;;;;;;;;5072958;28;20225;-71
2021/12/01 03:46:09;;;;;;;3.00;1.00;;;;;;;;;;5072377;28;20315;-71
2021/12/01 03:48:38;;;;;;;3.90;0.83;;;;;;;;;;5073203;28;20240;-71
2021/12/01 03:51:05;;;;;;;0.90;0.90;;;;;;;;;;5073492;28;20201;-71
2021/12/01 03:53:31;;;;;;;0.60;0.60;;;;;;;;;;5072034;28;20287;-71
2021/12/01 03:55:59;;;;;;;1.17;0.87;;;;;;;;;;5073456;28;20597;-72
2021/12/01 03:58:25;;;;;;;0.80;0.80;;;;;;;;;;5072154;28;20231;-71
2021/12/01 04:00:52;;;;;;;1.00;0.90;;;;;;;;;;5072182;28;20730;-72
2021/12/01 04:03:30;;;;;;;0.73;0.70;;;;;;;;;;5069921;28;20205;-72
2021/12/01 04:05:57;;;;;;;1.00;0.90;;;;;;;;;;5072613;28;20786;-72
2021/12/01 04:08:25;;;;;;;1.13;0.73;;;;;;;;;;5071203;28;20634;-72
2021/12/01 04:10:52;;;;;;;0.97;0.93;;;;;;;;;;5073530;28;20497;-73
2021/12/01 04:13:18;;;;;;;0.70;0.70;;;;;;;;;;5071586;28;20288;-72
2021/12/01 04:15:51;;;;;;;0.80;0.77;;;;;;;;;;5073189;28;20212;-72
2021/12/01 04:18:19;;;;;;;0.90;0.90;;;;;;;;;;5071550;28;20236;-72
2021/12/01 04:20:49;;;;;;;0.70;0.70;;;;;;;;;;5073150;28;20284;-72
2021/12/01 04:23:16;;;;;;;0.90;0.90;;;;;;;;;;5071520;28;20264;-72
2021/12/01 04:25:47;;;;;;;1.33;0.90;;;;;;;;;;5072589;28;20312;-72
2021/12/01 04:28:13;;;;;;;1.03;0.97;;;;;;;;;;5071566;28;20243;-72
2021/12/01 04:30:40;;;;;;;0.87;0.87;;;;;;;;;;5072209;28;20873;-72
2021/12/01 04:33:09;;;;;;;0.80;0.70;;;;;;;;;;5071358;28;20252;-72
2021/12/01 04:35:38;;;;;;;1.20;1.10;;;;;;;;;;5071380;28;20652;-72
2021/12/01 04:38:05;;;;;;;1.03;0.93;;;;;;;;;;5072768;28;20233;-72
2021/12/01 04:40:32;;;;;;;2.27;0.93;;;;;;;;;;5072184;28;20216;-73
2021/12/01 04:42:59;;;;;;;1.17;1.00;;;;;;;;;;5071964;28;20288;-73
2021/12/01 04:45:27;;;;;;;1.13;0.83;;;;;;;;;;5071742;28;20229;-72
2021/12/01 04:47:54;;;;;;;1.00;0.90;;;;;;;;;;5072698;28;20200;-73
2021/12/01 04:50:25;;;;;;;1.40;1.03;;;;;;;;;;5072344;28;20264;-72
2021/12/01 04:52:54;;;;;;;1.60;0.80;;;;;;;;;;5071956;28;20292;-73
2021/12/01 04:55:20;;;;;;;0.83;0.83;;;;;;;;;;5071267;28;20264;-72
2021/12/01 04:57:50;;;;;;;0.80;0.80;;;;;;;;;;5070669;28;20227;-73
2021/12/01 05:00:18;;;;;;;1.00;0.90;;;;;;;;;;5071294;28;20300;-73
2021/12/01 05:02:45;;;;;;;1.10;1.00;;;;;;;;;;5071242;28;20666;-72
2021/12/01 05:05:14;;;;;;;0.80;0.80;;;;;;;;;;5069596;28;20225;-73
2021/12/01 05:07:41;;;;;;;0.80;0.80;;;;;;;;;;5071892;28;20220;-72
2021/12/01 05:10:15;;;;;;;0.60;0.60;;;;;;;;;;5069753;28;20193;-72
2021/12/01 05:12:41;;;;;;;1.37;0.90;;;;;;;;;;5071895;28;20207;-73
2021/12/01 05:15:11;;;;;;;1.27;0.87;;;;;;;;;;5072715;28;20225;-72
2021/12/01 05:17:38;;;;;;;0.53;0.53;;;;;;;;;;5053966;28;20296;-72
2021/12/01 05:20:08;;;;;;;1.27;0.80;;;;;;;;;;5071730;28;20288;-72
2021/12/01 05:22:35;;;;;;;0.67;0.60;;;;;;;;;;5070311;28;20243;-72
2021/12/01 05:25:05;;;;;;;0.70;0.70;;;;;;;;;;5072063;28;20261;-72
2021/12/01 05:27:39;;;;;;;0.63;0.60;;;;;;;;;;5071153;28;20206;-72
2021/12/01 05:30:06;;;;;;;0.80;0.77;;;;;;;;;;5073831;28;20293;-72
2021/12/01 05:32:33;;;;;;;0.90;0.90;;;;;;;;;;5072113;28;20240;-72
2021/12/01 05:34:59;;;;;;;1.47;0.87;;;;;;;;;;5072601;28;20307;-73
2021/12/01 05:37:26;;;;;;;1.03;0.93;;;;;;;;;;5071424;28;20211;-73
2021/12/01 05:39:54;;;;;;;0.70;0.70;;;;;;;;;;5074192;28;20575;-72
2021/12/01 05:42:23;;;;;;;0.80;0.70;;;;;;;;;;5072042;28;20211;-72
2021/12/01 05:44:50;;;;;;;1.00;0.90;;;;;;;;;;5072762;28;20229;-72
2021/12/01 05:47:19;;;;;;;0.90;0.80;;;;;;;;;;5071177;28;20208;-72
2021/12/01 05:49:47;;;;;;;1.03;0.83;;;;;;;;;;5069716;28;20609;-72
2021/12/01 05:52:14;;;;;;;1.40;0.87;;;;;;;;;;5071477;28;20201;-72
2021/12/01 05:54:40;;;;;;;0.77;0.70;;;;;;;;;;5068853;28;20724;-72
2021/12/01 05:57:10;;;;;;;2.50;0.90;;;;;;;;;;5071228;28;20284;-72
2021/12/01 05:59:37;;;;;;;1.67;1.20;;;;;;;;;;5069458;28;20284;-72
2021/12/01 06:02:07;;;;;;;2.00;0.90;;;;;;;;;;5070948;28;20201;-72
2021/12/01 06:04:36;;;;;;;1.40;0.97;;;;;;;;;;5068120;28;20225;-72
2021/12/01 06:07:07;;;;;;;1.47;0.90;;;;;;;;;;5070581;28;20774;-72
2021/12/01 06:09:39;;;;;;;0.90;0.70;;;;;;;;;;5067913;28;20212;-73
2021/12/01 06:12:06;;;;;;;1.00;0.90;;;;;;;;;;5051160;28;20741;-72
2021/12/01 06:14:34;;;;;;;0.90;0.80;;;;;;;;;;5050393;28;20721;-72
2021/12/01 06:17:04;;;;;;;0.80;0.80;;;;;;;;;;5049928;28;20219;-72
2021/12/01 06:19:33;;;;;;;0.70;0.70;;;;;;;;;;5064438;28;20596;-73
2021/12/01 06:22:00;;;;;;;1.00;0.90;;;;;;;;;;5070687;28;20205;-73
2021/12/01 06:24:30;;;;;;;1.17;0.90;;;;;;;;;;5074321;28;20229;-73
2021/12/01 06:26:57;;;;;;;1.00;0.87;;;;;;;;;;5073849;28;20217;-72
2021/12/01 06:29:24;;;;;;;1.03;0.90;;;;;;;;;;5063308;28;20212;-73
2021/12/01 06:31:50;;;;;;;1.30;0.90;;;;;;;;;;5072720;28;20264;-72
2021/12/01 06:34:19;;;;;;;2.73;0.80;;;;;;;;;;5073878;28;20338;-72
2021/12/01 06:36:46;;;;;;;0.70;0.70;;;;;;;;;;5074534;28;20224;-71
2021/12/01 06:39:14;;;;;;;0.93;0.90;;;;;;;;;;5075726;28;20220;-71
2021/12/01 06:41:45;;;;;;;0.70;0.70;;;;;;;;;;5074768;28;20209;-72
2021/12/01 06:44:14;;;;;;;1.27;0.80;;;;;;;;;;5074099;28;20294;-73
2021/12/01 06:46:41;;;;;;;0.90;0.80;;;;;;;;;;5073016;28;20236;-73
2021/12/01 06:49:07;;;;;;;0.70;0.63;;;;;;;;;;5073352;28;20296;-73
2021/12/01 06:51:34;;;;;;;1.43;1.13;;;;;;;;;;5074078;28;20197;-75
2021/12/01 06:54:04;;;;;;;1.60;1.07;;;;;;;;;;5056622;28;20225;-75
2021/12/01 06:56:33;;;;;;;0.90;0.83;;;;;;;;;;5073256;28;20209;-73
2021/12/01 06:58:59;;;;;;;1.90;1.00;;;;;;;;;;5073233;28;20209;-72
2021/12/01 07:01:26;;;;;;;1.30;0.83;;;;;;;;;;5073481;28;20582;-72
2021/12/01 07:03:53;;;;;;;1.97;1.13;;;;;;;;;;5072444;28;20263;-73
2021/12/01 07:06:20;;;;;;;1.17;0.87;;;;;;;;;;5073440;28;20218;-73
2021/12/01 07:08:47;;;;;;;1.20;1.10;;;;;;;;;;5073024;28;20202;-73
2021/12/01 07:11:14;;;;;;;0.77;0.77;;;;;;;;;;5069616;28;20222;-73
2021/12/01 07:13:40;;;;;;;1.10;0.90;;;;;;;;;;5052362;28;20352;-73
2021/12/01 07:16:10;;;;;;;0.77;0.77;;;;;;;;;;5061682;28;20255;-73
2021/12/01 07:18:37;;;;;;;1.30;1.00;;;;;;;;;;5070832;28;20225;-72
2021/12/01 07:21:04;;;;;;;1.43;0.83;;;;;;;;;;5073304;28;20610;-72
2021/12/01 07:23:31;;;;;;;1.13;0.90;;;;;;;;;;5072323;28;20274;-73
2021/12/01 07:26:00;;;;;;;1.20;0.83;;;;;;;;;;5072803;28;20582;-71
2021/12/01 07:28:29;;;;;;;1.77;1.03;;;;;;;;;;5073643;28;20205;-73
2021/12/01 07:30:57;;;;;;;1.67;1.07;;;;;;;;;;5065602;28;20229;-74
2021/12/01 07:33:28;;;;;;;3.00;1.10;;;;;;;;;;5070150;28;20202;-73
2021/12/01 07:36:01;;;;;;;1.70;1.00;;;;;;;;;;5050352;28;20643;-74
2021/12/01 07:38:39;;;;;;;1.27;1.00;;;;;;;;;;5058943;28;20284;-73
2021/12/01 07:41:09;;;;;;;1.20;0.80;;;;;;;;;;5054919;28;20221;-73
2021/12/01 07:43:36;;;;;;;2.50;0.90;;;;;;;;;;5070868;28;20579;-74
2021/12/01 07:46:06;;;;;;;2.17;1.10;;;;;;;;;;5051234;28;20295;-73
2021/12/01 07:48:33;;;;;;;1.57;1.10;;;;;;;;;;5070684;28;20235;-73
2021/12/01 07:51:04;;;;;;;1.20;1.10;;;;;;;;;;5073143;28;20637;-75
2021/12/01 07:53:36;;;;;;;1.33;1.00;;;;;;;;;;5072462;28;20217;-75
2021/12/01 07:56:09;;;;;;;3.43;1.07;;;;;;;;;;5078002;28;20210;-72
2021/12/01 07:58:35;;;;;;;2.13;0.90;;;;;;;;;;5073440;28;20787;-73
2021/12/01 08:01:05;;;;;;;1.90;0.97;;;;;;;;;;5073666;28;20620;-73
2021/12/01 08:03:32;;;;;;;2.27;0.93;;;;;;;;;;5075602;28;20214;-71
2021/12/01 08:05:59;;;;;;;0.80;0.70;;;;;;;;;;5073386;28;20320;-71
2021/12/01 08:08:26;;;;;;;1.47;0.90;;;;;;;;;;5072449;28;20666;-72
2021/12/01 08:11:03;;;;;;;0.90;0.83;;;;;;;;;;5071445;28;20276;-74
2021/12/01 08:13:32;;;;;;;9.03;1.40;;;;;;;;;;5071567;28;20260;-74
2021/12/01 08:16:00;;;;;;;1.53;1.30;;;;;;;;;;5051676;28;20209;-73
2021/12/01 08:18:29;;;;;;;2.23;1.20;;;;;;;;;;5052847;28;20289;-74
2021/12/01 08:21:06;;;;;;;0.70;0.70;;;;;;;;;;5070783;28;20232;-73
2021/12/01 08:23:33;;;;;;;1.67;1.10;;;;;;;;;;5071308;28;20285;-74
2021/12/01 08:26:11;;;;;;;1.67;1.00;;;;;;;;;;5071958;28;20735;-74
2021/12/01 08:28:38;;;;;;;1.00;0.80;;;;;;;;;;5071299;28;20224;-76
2021/12/01 08:31:09;;;;;;;1.97;1.20;;;;;;;;;;5085624;28;20250;-71
2021/12/01 08:33:36;;;;;;;1.20;1.00;;;;;;;;;;5087861;28;20230;-71
2021/12/01 08:36:02;;;;;;;0.80;0.80;;;;;;;;;;5071425;28;20587;-73
2021/12/01 08:38:31;;;;;;;1.13;0.90;;;;;;;;;;5071472;28;20197;-72
2021/12/01 08:41:01;;;;;;;1.27;0.93;;;;;;;;;;5072504;28;20725;-72
2021/12/01 08:43:28;;;;;;;1.00;0.90;;;;;;;;;;5070347;28;20211;-72
2021/12/01 08:45:54;;;;;;;1.60;1.27;;;;;;;;;;5071224;28;20307;-72
2021/12/01 08:48:26;;;;;;;3.43;1.10;;;;;;;;;;5072435;28;20680;-72
2021/12/01 08:50:56;;;;;;;2.50;1.03;;;;;;;;;;5071123;28;20456;-72
2021/12/01 08:53:26;;;;;;;4.00;1.10;;;;;;;;;;5072240;28;20586;-72
2021/12/01 08:56:01;;;;;;;2.80;1.17;;;;;;;;;;5072999;28;20212;-72
2021/12/01 08:58:28;;;;;;;1.63;1.20;;;;;;;;;;5070970;28;20285;-74
2021/12/01 09:00:55;;;;;;;3.20;1.00;;;;;;;;;;5071919;28;20287;-73
2021/12/01 09:03:23;;;;;;;0.90;0.80;;;;;;;;;;5069859;28;20209;-72
2021/12/01 09:05:50;;;;;;;1.37;0.97;;;;;;;;;;5071440;28;20287;-72
2021/12/01 09:08:17;;;;;;;1.73;1.20;;;;;;;;;;5070765;28;20229;-73
2021/12/01 09:10:45;;;;;;;1.67;1.00;;;;;;;;;;5067172;28;20232;-71
2021/12/01 09:13:12;;;;;;;0.97;0.83;;;;;;;;;;5051037;28;20742;-74
2021/12/01 09:15:39;;;;;;;1.63;1.10;;;;;;;;;;5051651;28;20198;-73
2021/12/01 09:18:06;;;;;;;2.00;1.03;;;;;;;;;;5033922;28;20252;-74
2021/12/01 09:20:32;;;;;;;1.60;1.10;;;;;;;;;;5033797;28;20388;-73
2021/12/01 09:23:00;;;;;;;2.07;1.17;;;;;;;;;;5051043;28;20201;-71
2021/12/01 09:25:27;;;;;;;2.70;1.10;;;;;;;;;;5051361;28;20222;-73
2021/12/01 09:28:10;;;;;;;1.13;0.90;;;;;;;;;;5051532;28;20213;-72
2021/12/01 09:30:37;;;;;;;4.53;1.33;;;;;;;;;;5051333;28;20296;-72
2021/12/01 09:33:03;;;;;;;5.23;1.33;;;;;;;;;;5050804;28;20609;-74
2021/12/01 09:35:31;;;;;;;1.30;0.90;;;;;;;;;;5066891;28;20229;-73
2021/12/01 09:37:57;;;;;;;2.20;0.90;;;;;;;;;;5071430;28;20300;-73
2021/12/01 09:40:24;;;;;;;2.60;1.00;;;;;;;;;;5071414;28;20240;-72
2021/12/01 09:42:52;;;;;;;1.30;0.90;;;;;;;;;;5071053;28;20205;-73
2021/12/01 09:45:20;;;;;;;1.90;1.00;;;;;;;;;;5071131;28;20601;-73
2021/12/01 09:47:47;;;;;;;1.60;0.93;;;;;;;;;;5071159;28;20777;-72
2021/12/01 09:50:13;;;;;;;1.30;0.80;;;;;;;;;;5071470;28;20318;-72
2021/12/01 09:52:40;;;;;;;4.07;1.30;;;;;;;;;;5070621;28;20295;-74
2021/12/01 09:55:07;;;;;;;1.10;0.83;;;;;;;;;;5071056;28;20324;-73
2021/12/01 09:57:34;;;;;;;1.73;0.80;;;;;;;;;;5074646;28;20673;-72
2021/12/01 10:00:00;;;;;;;1.33;0.60;;;;;;;;;;5075052;28;20312;-72
2021/12/01 10:02:27;;;;;;;1.30;0.70;;;;;;;;;;5074360;28;20209;-72
2021/12/01 10:04:53;;;;;;;2.43;0.90;;;;;;;;;;5074865;28;20237;-73
2021/12/01 10:07:30;;;;;;;0.77;0.57;;;;;;;;;;5074569;28;20256;-72
2021/12/01 10:10:03;;;;;;;0.60;0.50;;;;;;;;;;5074690;28;20632;-71
2021/12/01 10:12:43;;;;;;;1.07;0.80;;;;;;;;;;5074152;28;20209;-72
2021/12/01 10:15:10;;;;;;;0.73;0.70;;;;;;;;;;5074739;28;20247;-72
2021/12/01 10:17:36;;;;;;;1.10;0.80;;;;;;;;;;5074648;28;20299;-73
2021/12/01 10:20:09;;;;;;;0.70;0.43;;;;;;;;;;5074565;28;20213;-72
2021/12/01 10:22:35;;;;;;;3.50;0.80;;;;;;;;;;5073944;28;20697;-72
2021/12/01 10:25:02;;;;;;;0.90;0.60;;;;;;;;;;5074748;28;20287;-71
2021/12/01 10:27:36;;;;;;;1.07;0.73;;;;;;;;;;5075003;28;20735;-71
2021/12/01 10:30:02;;;;;;;0.50;0.50;;;;;;;;;;5074822;28;20292;-71
2021/12/01 10:32:29;;;;;;;0.80;0.63;;;;;;;;;;5074255;28;20232;-72
2021/12/01 10:34:58;;;;;;;1.10;1.00;;;;;;;;;;5075433;28;20229;-71
2021/12/01 10:37:26;;;;;;;1.00;0.60;;;;;;;;;;5073724;28;20213;-71
2021/12/01 10:40:03;;;;;;;1.03;0.80;;;;;;;;;;5074744;28;20305;-70
2021/12/01 10:42:30;;;;;;;2.03;0.53;;;;;;;;;;5073903;28;20288;-71
2021/12/01 10:45:04;;;;;;;0.63;0.60;;;;;;;;;;5074188;28;20781;-71
2021/12/01 10:47:37;;;;;;;0.77;0.63;;;;;;;;;;5074095;28;20315;-71
2021/12/01 10:50:04;;;;;;;1.30;0.67;;;;;;;;;;5074397;28;20197;-71
2021/12/01 10:52:35;;;;;;;2.43;1.33;;;;;;;;;;5073959;28;20213;-71
2021/12/01 10:55:03;;;;;;;2.73;0.70;;;;;;;;;;5073018;28;20225;-71
2021/12/01 10:57:30;;;;;;;2.17;0.63;;;;;;;;;;5074280;28;20205;-72
2021/12/01 10:59:56;;;;;;;1.07;0.60;;;;;;;;;;5074063;28;20810;-72
2021/12/01 11:02:23;;;;;;;2.00;0.90;;;;;;;;;;5072378;28;20292;-73
2021/12/01 11:04:51;;;;;;;1.53;0.67;;;;;;;;;;5074028;28;20260;-72
2021/12/01 11:07:25;;;;;;;0.30;0.30;;;;;;;;;;5073319;28;20308;-73
2021/12/01 11:10:10;;;;;;;0.47;0.47;;;;;;;;;;5073933;28;20681;-71
2021/12/01 11:12:36;;;;;;;0.87;0.50;;;;;;;;;;5071907;28;20288;-72
2021/12/01 11:15:19;;;;;;;2.30;0.73;;;;;;;;;;5072588;28;20251;-72
2021/12/01 11:17:46;;;;;;;0.93;0.50;;;;;;;;;;5073651;28;20237;-72
2021/12/01 11:20:30;;;;;;;0.87;0.40;;;;;;;;;;5073590;28;20642;-72
2021/12/01 11:23:06;;;;;;;0.40;0.40;;;;;;;;;;5073094;28;20303;-72
2021/12/01 11:25:37;;;;;;;0.50;0.50;;;;;;;;;;5073602;28;20638;-72
2021/12/01 11:28:05;;;;;;;0.80;0.60;;;;;;;;;;5073505;28;20231;-72
2021/12/01 11:30:31;;;;;;;0.40;0.40;;;;;;;;;;5073324;28;20212;-72
2021/12/01 11:33:18;;;;;;;0.30;0.30;;;;;;;;;;5072860;28;20197;-72
2021/12/01 11:35:46;;;;;;;1.10;0.80;;;;;;;;;;5071910;28;20639;-72
2021/12/01 11:38:13;;;;;;;0.70;0.63;;;;;;;;;;5072156;28;20727;-71
2021/12/01 11:40:41;;;;;;;2.97;0.60;;;;;;;;;;5073368;28;20201;-72
2021/12/01 11:43:09;;;;;;;1.30;0.50;;;;;;;;;;5072736;28;20645;-71
2021/12/01 11:45:36;;;;;;;0.60;0.60;;;;;;;;;;5073550;28;20257;-72
2021/12/01 11:48:03;;;;;;;2.93;0.70;;;;;;;;;;5072879;28;20724;-72
2021/12/01 11:50:32;;;;;;;2.07;0.80;;;;;;;;;;5071924;28;20202;-71
2021/12/01 11:53:04;;;;;;;0.93;0.60;;;;;;;;;;5072405;28;20292;-74
2021/12/01 11:56:06;;;;;;;1.40;0.53;;;;;;;;;;5071841;28;20308;-71
2021/12/01 11:58:49;;;;;;;0.70;0.63;;;;;;;;;;4994116;28;20202;-72
2021/12/01 12:01:22;;;;;;;2.80;1.00;;;;;;;;;;5067822;28;20197;-72
2021/12/01 12:03:50;;;;;;;1.13;0.60;;;;;;;;;;5071168;28;20240;-71
2021/12/01 12:06:37;;;;;;;0.73;0.73;;;;;;;;;;5073086;28;20193;-74
2021/12/01 12:09:07;;;;;;;1.00;0.50;;;;;;;;;;5033135;28;20212;-72
2021/12/01 12:12:02;;;;;;;1.43;0.90;;;;;;;;;;5068353;28;20209;-72
2021/12/01 12:14:31;;;;;;;1.20;0.50;;;;;;;;;;5072532;28;20310;-73
2021/12/01 12:17:15;;;;;;;0.93;0.67;;;;;;;;;;5071993;28;20190;-72
2021/12/01 12:21:03;;;;;;;0.93;0.70;;;;;;;;;;5070589;28;20197;-72
2021/12/01 12:23:00;;;;;;;0.50;0.50;;;;;;;;;;5058990;28;20209;-73
2021/12/01 12:25:49;;;;;;;0.70;0.60;;;;;;;;;;5072355;28;20249;-73
2021/12/01 12:28:36;;;;;;;1.83;0.80;;;;;;;;;;5072586;28;20221;-73
2021/12/01 12:31:08;;;;;;;0.60;0.60;;;;;;;;;;5071266;28;20197;-73
2021/12/01 12:33:48;;;;;;;1.57;0.50;;;;;;;;;;5070504;28;20311;-73
2021/12/01 12:36:14;;;;;;;0.30;0.30;;;;;;;;;;5071350;28;20196;-73
2021/12/01 12:39:00;;;;;;;0.93;0.50;;;;;;;;;;5072396;28;20214;-72
2021/12/01 12:41:26;;;;;;;0.50;0.50;;;;;;;;;;5072696;28;20236;-72
2021/12/01 12:44:17;;;;;;;0.73;0.60;;;;;;;;;;5070710;28;20225;-73
2021/12/01 12:47:09;;;;;;;1.13;0.50;;;;;;;;;;5070813;28;20221;-72
2021/12/01 12:49:44;;;;;;;0.73;0.43;;;;;;;;;;5072472;28;20205;-72
2021/12/01 12:52:32;;;;;;;0.90;0.50;;;;;;;;;;5072199;28;20208;-73
2021/12/01 12:55:07;;;;;;;0.80;0.40;;;;;;;;;;5072808;28;20668;-74
2021/12/01 12:57:49;;;;;;;1.23;0.40;;;;;;;;;;5074274;28;20208;-72
2021/12/01 13:00:38;;;;;;;0.70;0.50;;;;;;;;;;5074026;28;20224;-72
2021/12/01 13:03:17;;;;;;;0.60;0.40;;;;;;;;;;5072148;28;20205;-73
2021/12/01 13:05:45;;;;;;;1.53;0.80;;;;;;;;;;5072088;28;20204;-72
2021/12/01 13:08:27;;;;;;;0.93;0.70;;;;;;;;;;5073232;28;20271;-72
2021/12/01 13:10:57;;;;;;;0.50;0.50;;;;;;;;;;5072556;28;20642;-72
2021/12/01 13:13:28;;;;;;;1.63;0.70;;;;;;;;;;5071894;28;20658;-73
2021/12/01 13:16:06;;;;;;;3.83;0.80;;;;;;;;;;5072511;28;20240;-73
2021/12/01 13:18:34;;;;;;;0.80;0.33;;;;;;;;;;5071611;28;20262;-72
2021/12/01 13:21:03;;;;;;;0.53;0.40;;;;;;;;;;5072158;28;20244;-72
2021/12/01 13:23:30;;;;;;;0.30;0.30;;;;;;;;;;5071917;28;20210;-72
2021/12/01 13:26:18;;;;;;;0.97;0.70;;;;;;;;;;5072298;28;20627;-72
2021/12/01 13:29:05;;;;;;;1.07;0.67;;;;;;;;;;5071192;28;20248;-73
2021/12/01 13:31:35;;;;;;;1.17;0.47;;;;;;;;;;5071963;28;20205;-72
2021/12/01 13:34:08;;;;;;;0.83;0.50;;;;;;;;;;5069769;28;20229;-72
2021/12/01 13:36:45;;;;;;;3.43;0.73;;;;;;;;;;5072054;28;20205;-72
2021/12/01 13:39:23;;;;;;;0.90;0.60;;;;;;;;;;5071165;28;20239;-72
2021/12/01 13:41:55;;;;;;;1.00;0.53;;;;;;;;;;5070663;28;20212;-71
2021/12/01 13:44:23;;;;;;;0.93;0.53;;;;;;;;;;5070942;28;20313;-71
2021/12/01 13:46:59;;;;;;;1.57;0.57;;;;;;;;;;5071622;28;20300;-71
2021/12/01 13:49:38;;;;;;;0.50;0.50;;;;;;;;;;5071390;28;20212;-71
2021/12/01 13:52:06;;;;;;;1.30;0.57;;;;;;;;;;5070707;28;20216;-73
2021/12/01 13:54:32;;;;;;;0.90;0.40;;;;;;;;;;5071347;28;20688;-73
2021/12/01 13:57:04;;;;;;;0.47;0.47;;;;;;;;;;5071815;28;20205;-74
2021/12/01 13:59:45;;;;;;;0.33;0.33;;;;;;;;;;5071568;28;20244;-74
2021/12/01 14:02:19;;;;;;;1.93;0.50;;;;;;;;;;5071057;28;20296;-72
2021/12/01 14:04:51;;;;;;;1.30;0.80;;;;;;;;;;5071479;28;20613;-72
2021/12/01 14:07:18;;;;;;;0.53;0.53;;;;;;;;;;5071274;28;20303;-72
2021/12/01 14:09:55;;;;;;;0.87;0.63;;;;;;;;;;5053441;28;20293;-72
2021/12/01 14:12:45;;;;;;;1.37;0.60;;;;;;;;;;5071279;28;20553;-72
2021/12/01 14:15:11;;;;;;;3.10;0.60;;;;;;;;;;5070377;28;20232;-71
2021/12/01 14:17:57;;;;;;;0.87;0.47;;;;;;;;;;5071595;28;20233;-71
2021/12/01 14:20:26;;;;;;;0.40;0.40;;;;;;;;;;5071635;28;20209;-71
2021/12/01 14:22:53;;;;;;;1.17;0.47;;;;;;;;;;5069510;28;20274;-71
2021/12/01 14:25:24;;;;;;;1.10;0.67;;;;;;;;;;5070636;28;20260;-71
2021/12/01 14:28:11;;;;;;;1.40;0.50;;;;;;;;;;5070406;28;20630;-71
2021/12/01 14:30:40;;;;;;;0.60;0.60;;;;;;;;;;5071497;28;20198;-72
2021/12/01 14:33:11;;;;;;;0.40;0.40;;;;;;;;;;5071286;28;20201;-72
2021/12/01 14:35:41;;;;;;;0.50;0.40;;;;;;;;;;5071322;28;20209;-73
2021/12/01 14:38:08;;;;;;;0.73;0.53;;;;;;;;;;5069948;28;20292;-73
2021/12/01 14:40:45;;;;;;;0.97;0.70;;;;;;;;;;5069719;28;20213;-74
2021/12/01 14:43:12;;;;;;;1.13;0.73;;;;;;;;;;5055432;28;20215;-73
2021/12/01 14:45:42;;;;;;;1.33;0.60;;;;;;;;;;5073911;28;20209;-73
2021/12/01 14:48:11;;;;;;;0.60;0.40;;;;;;;;;;5057717;28;20350;-73
2021/12/01 14:50:40;;;;;;;8.07;0.47;;;;;;;;;;5074709;28;20693;-73
2021/12/01 14:53:20;;;;;;;1.13;0.60;;;;;;;;;;5072709;28;20213;-72
2021/12/01 14:55:49;;;;;;;0.70;0.70;;;;;;;;;;5073459;28;20233;-72
2021/12/01 14:58:17;;;;;;;0.87;0.60;;;;;;;;;;5073752;28;20206;-72
2021/12/01 15:01:01;;;;;;;0.90;0.50;;;;;;;;;;5074890;28;20672;-73
2021/12/01 15:03:40;;;;;;;1.63;0.83;;;;;;;;;;5073984;28;20209;-72
2021/12/01 15:06:10;;;;;;;0.87;0.50;;;;;;;;;;5073001;28;20280;-72
2021/12/01 15:08:39;;;;;;;0.90;0.70;;;;;;;;;;5072905;28;20308;-72
2021/12/01 15:11:18;;;;;;;1.50;0.40;;;;;;;;;;5074161;28;20204;-73
2021/12/01 15:13:45;;;;;;;0.60;0.60;;;;;;;;;;5073512;28;20229;-73
2021/12/01 15:16:26;;;;;;;3.20;1.00;;;;;;;;;;5057690;28;20216;-72
2021/12/01 15:19:15;;;;;;;1.67;0.80;;;;;;;;;;5061433;28;20205;-72
2021/12/01 15:21:46;;;;;;;2.30;0.80;;;;;;;;;;5071068;28;20280;-72
2021/12/01 15:24:14;;;;;;;0.80;0.60;;;;;;;;;;5069885;28;20728;-72
2021/12/01 15:26:42;;;;;;;1.20;0.83;;;;;;;;;;5071157;28;20201;-72
2021/12/01 15:29:14;;;;;;;2.47;1.43;;;;;;;;;;5072144;28;20260;-72
2021/12/01 15:32:00;;;;;;;0.67;0.67;;;;;;;;;;5071067;28;20273;-72
2021/12/01 15:34:27;;;;;;;1.07;0.77;;;;;;;;;;5071581;28;20249;-71
2021/12/01 15:37:01;;;;;;;1.50;1.00;;;;;;;;;;5072925;28;20197;-73